CheckWX is a tool to help pilots better visualize weather data.  It is not intended as a substitute for an official pre-flight weather briefing.

02:40:48 UTC

KWVI METAR
Watsonville Municipal Airport
Watsonville, California, USA
Current

48 mins ago

KWVI 060153Z AUTO 18006KT 10SM CLR 20/12 A2995 RMK AO2 SLP143 T02000117
Observed
Jul-6 @ 01:53 UTC
Wind
  • 180° at 6 KTS
Visibility
10 SM
Flight Rules
VFR
Cloud Levels
  • Clear skies
Temperature
20°C / 68°F
Dewpoint
12°C / 54°F
Humidity
60%
Altimeter
29.95" Hg
Pressure
1014.22 hPa
Previous

2 hours ago

KWVI 060053Z AUTO 16009KT 10SM CLR 22/12 A2995 RMK AO2 SLP143 T02170117
Observed
Jul-6 @ 00:53 UTC
Wind
  • 160° at 9 KTS
Visibility
10 SM
Flight Rules
VFR
Cloud Levels
  • Clear skies
Temperature
22°C / 72°F
Dewpoint
12°C / 54°F
Humidity
53%
Altimeter
29.95" Hg
Pressure
1014.22 hPa
Previous

3 hours ago

KWVI 052353Z AUTO 16008KT 10SM CLR 22/13 A2997 RMK AO2 SLP147 T02170128 10256 20211 56010
Observed
Jul-5 @ 23:53 UTC
Wind
  • 160° at 8 KTS
Visibility
10 SM
Flight Rules
VFR
Cloud Levels
  • Clear skies
Temperature
22°C / 72°F
Dewpoint
13°C / 55°F
Humidity
57%
Altimeter
29.97" Hg
Pressure
1014.92 hPa